Woodruff, WI

2:02 PM CDT on May 03, 2015 (GMT -0500)
Ross Lake | | Change Station
CLOSE
Current Station
Personal Weather Station
Location: Woodruff, WI
Elevation: 1640 ft
Nearby Weather Stations

Elev 1640 ft 45.96 °N, 89.60 °W | Updated 9 minutes ago

Clear
Clear
76.8 °F
Feels Like 76 °F
N
6.0
Wind Variable Wind from South
Gusts 11.0 mph

Today
High -- | Low -- °F
--% Chance of Precip.
Yesterday
High -- | Low -- °F
Precip. -- in
5:43 AM 8:09 PM
Full, 100% visible
Pressure 29.80 in
Visibility 10.0 miles
Clouds Scattered Clouds 5500 ft
Scattered Clouds 7500 ft
Scattered Clouds 9000 ft
Heat Index 76 °F
Dew Point 16 °F
Humidity 10%
Rainfall 0.00 in
Snow Depth Not available.
UV 7 out of 12
Pollen 10.60 out of 12
Air Quality Not available.
Flu Activity Local Activity
METAR KARV 031855Z AUTO 26011KT 10SM SCT055 SCT075 SCT090 25/09 A2980 RMK AO2 T02500093

More Conditions Fewer Conditions

Pressure 29.80 in
Visibility 10.0 miles
Clouds Scattered Clouds 5500 ft
Scattered Clouds 7500 ft
Scattered Clouds 9000 ft
Heat Index 76 °F
Dew Point 16 °F
Humidity 10%
Rainfall 0.00 in
Snow Depth Not available.
UV 7 out of 12
Pollen 10.60 out of 12
Air Quality Not available.
Flu Activity Local Activity
METAR KARV 031855Z AUTO 26011KT 10SM SCT055 SCT075 SCT090 25/09 A2980 RMK AO2 T02500093

More Conditions Fewer Conditions

Nepal has a long way to go to dig out and rebuild from a devastating earthquake. We have teamed up with several charities and organizations to make contributing to the relief effort as easy as possible.
How you can help: Portlight Strategies | Red Cross

10-Day Weather Forecast

Almanac

Astronomy

May. 03, 2015 Rise Set
Actual Time
Civil Twilight
Nautical Twilight
Astronomical Twilight
Moon
Length of Visible Light
Length of Day
Tomorrow will be .
, % of the Moon is Illuminated

Today's Extremes

State Highs State Lows

Community

WunderPhotos

Upload Photos

1,818,341 photos uploaded!

WunderBlogs® & News

Nearby

Air Quality

  Air Quality AQ Index Pollutant
Not available.

Snow Depth

Station Depth Elevation

Earthquake Activity

City Distance Mag. Time & Date
Minimum magnitude displayed is 2.5.

Coastal Water Temperatures

Place Temperature

Stations

Nearby Weather Stations

Station Location Temp. Windchill Dew Point Humidity Wind Precip. Elev Updated Type